• Join FlightAware (Why Join?)
  • Login
  • US Flag 
11:38PM EST


 

Airport Tracker/Info


-or-


 

Live Flight TrackerFlight Track Log ✈ UAL3776 ✈ 08-Apr-2013 ✈ KIAD - KBUF

Flight Track Log - Related Links

Times and Time Zones

All times are in EDT time to prevent confusion due to time zone crossing. See the UAL3776 flight status page for this flight to view local times or setup timezone preferences in your user account.

Time Position Orientation Groundspeed Altitude Reporting Facility
EDT Latitude Longitude Course Direction KTS MPH feet Rate Location/Type
10:04PM 38.9833 -77.5333 North 217 250 2,500  Level Potomac TRACON
10:05PM 39.0500 -77.5333 360° North 287 330 4,800 2,820 Climbing Potomac TRACON
10:06PM 39.1333 -77.5167 North 285 328 8,200 3,060 Climbing Potomac TRACON
10:07PM 39.4069 -77.4500 North  Level FlightAware Approximate
10:07PM 39.2000 -77.5167 360° North 294 338 11,000  Level Potomac TRACON
10:08PM 39.5253 -77.4500 North  Level FlightAware Approximate
10:09PM 39.6437 -77.4500 North  Level FlightAware Approximate
10:09PM 39.3381 -77.4553 19° North  Level FlightAware Approximate
10:10PM 39.7621 -77.4500 North  Level FlightAware Approximate
10:13PM 39.7592 -77.4606 360° North 391 450 20,900  Level New York Center
10:14PM 39.8739 -77.4578 North 397 457 21,600 1,140 Climbing New York Center
10:15PM 39.9828 -77.4872 348° North 402 463 23,300 1,140 Climbing New York Center
10:16PM 40.1706 -77.4333 North  Level FlightAware Approximate
10:16PM 40.0928 -77.5306 343° North 407 468 24,000  Level New York Center
10:17PM 40.2890 -77.4333 360° North  Level FlightAware Approximate
10:17PM 40.2075 -77.5661 347° North 413 475 24,000  Level New York Center
10:18PM 40.4074 -77.4333 360° North  Level FlightAware Approximate
10:19PM 40.4128 -77.6461 343° North 447 514 24,000  Level Cleveland Center
10:20PM 40.5225 -77.6878 344° North 435 501 24,000  Level Cleveland Center
10:21PM 40.6361 -77.7319 344° North 425 489 24,000  Level Cleveland Center
10:22PM 40.7456 -77.7739 344° North 420 483 24,000  Level Cleveland Center
10:23PM 40.8592 -77.8183 344° North 420 483 24,000  Level Cleveland Center
10:24PM 40.9686 -77.8606 344° North 420 483 24,000  Level Cleveland Center
10:25PM 41.0822 -77.9028 344° North 420 483 24,000  Level Cleveland Center
10:26PM 41.1939 -77.9478 343° North 420 483 24,000  Level Cleveland Center
10:27PM 41.3158 -77.9953 344° North 426 490 24,000  Level Cleveland Center
10:28PM 41.4253 -78.0381 344° North 426 490 24,000 -780 Level Cleveland Center
10:29PM 41.5386 -78.0808 344° North 426 490 22,500 -1,740 Descending Cleveland Center
10:30PM 41.6481 -78.1239 344° North 426 490 20,600 -1,920 Descending Cleveland Center
10:31PM 41.7575 -78.1697 343° North 426 490 18,700 -1,920 Descending Cleveland Center
10:32PM 41.8689 -78.2158 343° North 426 490 16,800 -1,980 Descending Cleveland Center
10:33PM 41.9697 -78.2567 343° North 421 484 14,800 -1,980 Descending Cleveland Center
10:34PM 42.0622 -78.2925 344° North 377 434 12,900 -1,860 Descending Cleveland Center
10:35PM 42.1506 -78.3286 343° North 348 400 11,100 -960 Descending Cleveland Center
10:36PM 42.2325 -78.3594 344° North 335 386 11,000  Descending Cleveland Center
10:37PM 42.3228 -78.3983 342° North 335 386 11,100  Climbing Cleveland Center
10:38PM 42.4131 -78.4317 345° North 335 386 11,000 -60 Descending Cleveland Center
10:39PM 42.4992 -78.4683 343° North 329 379 11,000 -420 Level Cleveland Center
10:40PM 42.5769 -78.4994 344° North 308 354 10,200 -1,140 Descending Cleveland Center
10:41PM 42.6506 -78.5308 343° North 293 337 8,800 -1,560 Descending Cleveland Center
10:42PM 42.7342 -78.5564 347° North 279 321 7,200 -1,500 Descending Cleveland Center
10:43PM 42.8156 -78.5539 North 284 327 5,900 -1,380 Descending Cleveland Center
10:44PM 42.8947 -78.5514 North 284 327 4,500 -1,380 Descending Cleveland Center
10:45PM 42.9575 -78.5747 345° North 273 314 3,200 -1,320 Descending Cleveland Center